createdAt,value
2018-04-12T00:02:25.837Z,94951.15
2018-04-12T00:04:53.348Z,94953.32
2018-04-12T00:07:20.859Z,94955.00
2018-04-12T00:09:48.371Z,94952.70
2018-04-12T00:12:15.884Z,94964.84
2018-04-12T00:14:43.433Z,94964.26
2018-04-12T00:17:10.943Z,94958.98
2018-04-12T00:19:38.524Z,94959.58
2018-04-12T00:22:06.106Z,94956.03
2018-04-12T00:24:33.617Z,94960.19
2018-04-12T00:27:01.165Z,94958.92
2018-04-12T00:29:28.724Z,94961.22
2018-04-12T00:31:56.268Z,94958.00
2018-04-12T00:34:23.813Z,94945.65
2018-04-12T00:36:51.335Z,94961.96
2018-04-12T00:39:18.847Z,94962.81
2018-04-12T00:41:46.430Z,94957.64
2018-04-12T00:44:13.945Z,94961.30
2018-04-12T00:46:41.459Z,94970.93
2018-04-12T00:49:09.038Z,94963.06
2018-04-12T00:51:36.557Z,94962.81
2018-04-12T00:54:06.037Z,94965.78
2018-04-12T00:56:33.560Z,94958.19
2018-04-12T00:59:01.101Z,94964.03
2018-04-12T01:01:28.659Z,94963.02
2018-04-12T01:03:56.197Z,94957.09
2018-04-12T01:06:23.741Z,94967.52
2018-04-12T01:08:51.264Z,94962.28
2018-04-12T01:11:18.845Z,94965.04
2018-04-12T01:13:46.395Z,94962.59
2018-04-12T01:16:13.904Z,94959.52
2018-04-12T01:18:41.459Z,94955.87
2018-04-12T01:21:08.963Z,94956.41
2018-04-12T01:23:36.463Z,94961.86
2018-04-12T01:26:04.004Z,94955.08
2018-04-12T01:28:31.597Z,94948.09
2018-04-12T01:30:59.144Z,94958.42
2018-04-12T01:33:26.652Z,94962.08
2018-04-12T01:35:54.191Z,94944.36
2018-04-12T01:38:21.740Z,94960.42
2018-04-12T01:40:49.257Z,94957.23
2018-04-12T01:43:16.764Z,94959.48
2018-04-12T01:45:44.270Z,94957.40
2018-04-12T01:48:11.803Z,94954.15
2018-04-12T01:50:39.390Z,94964.09
2018-04-12T01:53:06.896Z,94962.58
2018-04-12T01:55:34.459Z,94966.78
2018-04-12T01:58:01.973Z,94962.67
2018-04-12T02:00:29.526Z,94952.06
2018-04-12T02:02:57.036Z,94961.96
2018-04-12T02:05:24.539Z,94956.91
2018-04-12T02:07:52.088Z,94953.53
2018-04-12T02:10:19.674Z,94958.60
2018-04-12T02:12:47.217Z,94954.80
2018-04-12T02:15:14.738Z,94965.92
2018-04-12T02:17:42.296Z,94967.92
2018-04-12T02:20:09.803Z,94961.69
2018-04-12T02:22:37.316Z,94969.16
2018-04-12T02:25:04.818Z,94960.61
2018-04-12T02:27:32.323Z,94966.40
2018-04-12T02:29:59.834Z,94970.60
2018-04-12T02:32:27.379Z,94971.86
2018-04-12T02:34:54.919Z,94967.20
2018-04-12T02:37:22.428Z,94967.84
2018-04-12T02:39:49.981Z,94969.30
2018-04-12T02:42:17.482Z,94961.46
2018-04-12T02:44:44.991Z,94975.98
2018-04-12T02:47:12.542Z,94971.74
2018-04-12T02:49:40.064Z,94972.03
2018-04-12T02:52:07.616Z,94975.47
2018-04-12T02:54:35.136Z,94976.32
2018-04-12T02:57:02.681Z,94979.02
2018-04-12T02:59:30.188Z,94978.49
2018-04-12T03:01:57.909Z,94987.05
2018-04-12T03:04:25.422Z,94984.44
2018-04-12T03:06:52.988Z,94987.78
2018-04-12T03:09:20.586Z,94980.48
2018-04-12T03:11:48.093Z,94982.50
2018-04-12T03:14:15.597Z,94981.02
2018-04-12T03:16:43.140Z,94986.00
2018-04-12T03:19:10.648Z,94979.06
2018-04-12T03:21:38.170Z,94988.17
2018-04-12T03:24:05.671Z,94985.47
2018-04-12T03:26:33.220Z,94991.80
2018-04-12T03:29:00.722Z,94989.53
2018-04-12T03:31:28.274Z,94990.94
2018-04-12T03:33:55.787Z,95003.63
2018-04-12T03:36:23.297Z,95002.38
2018-04-12T03:38:50.842Z,95001.37
2018-04-12T03:41:18.352Z,94997.12
2018-04-12T03:43:45.910Z,95003.16
2018-04-12T03:46:13.465Z,95010.72
2018-04-12T03:48:41.035Z,95010.09
2018-04-12T03:51:08.502Z,95007.79
2018-04-12T03:53:36.011Z,95023.87
2018-04-12T03:56:03.525Z,94994.77
2018-04-12T03:58:31.068Z,95009.19
2018-04-12T04:00:58.620Z,95007.20
2018-04-12T04:03:26.135Z,95006.11
2018-04-12T04:05:53.643Z,95008.80
2018-04-12T04:08:21.147Z,95008.44
2018-04-12T04:10:48.659Z,95019.21
2018-04-12T04:13:16.202Z,95003.22
2018-04-12T04:15:55.411Z,95008.85
2018-04-12T04:18:34.707Z,95020.86
2018-04-12T04:21:09.882Z,95020.56
2018-04-12T04:23:37.391Z,95018.81
2018-04-12T04:28:32.275Z,95021.58
2018-04-12T04:30:59.811Z,95033.34
2018-04-12T04:33:27.315Z,95035.15
2018-04-12T04:35:54.975Z,95019.40
2018-04-12T04:38:22.475Z,95033.08
2018-04-12T04:40:50.040Z,95033.58
2018-04-12T04:43:17.543Z,95028.03
2018-04-12T04:45:45.057Z,95031.22
2018-04-12T04:48:12.575Z,95024.55
2018-04-12T04:50:40.079Z,95048.64
2018-04-12T04:53:07.646Z,95041.94
2018-04-12T04:55:35.151Z,95039.05
2018-04-12T04:58:02.705Z,95035.52
2018-04-12T05:00:30.255Z,95030.08
2018-04-12T05:02:57.763Z,95037.64
2018-04-12T05:05:25.280Z,95039.58
2018-04-12T05:07:52.794Z,95053.84
2018-04-12T05:10:20.405Z,95057.22
2018-04-12T05:12:47.966Z,95060.86
2018-04-12T05:15:15.511Z,95059.08
2018-04-12T05:17:43.075Z,95056.36
2018-04-12T05:20:10.649Z,95045.19
2018-04-12T05:22:38.212Z,95050.00
2018-04-12T05:25:05.721Z,95053.52
2018-04-12T05:27:34.141Z,95044.94
2018-04-12T05:30:01.662Z,95048.34
2018-04-12T05:32:29.207Z,95050.50
2018-04-12T05:34:56.750Z,95049.35
2018-04-12T05:37:24.295Z,95050.91
2018-04-12T05:39:51.806Z,95046.03
2018-04-12T05:42:19.363Z,95054.63
2018-04-12T05:44:46.872Z,95057.78
2018-04-12T05:47:14.372Z,95057.93
2018-04-12T05:49:41.898Z,95033.74
2018-04-12T05:52:09.492Z,95062.74
2018-04-12T05:54:37.006Z,95068.95
2018-04-12T05:57:04.551Z,95065.66
2018-04-12T05:59:32.056Z,95070.86
2018-04-12T06:01:59.614Z,95069.95
2018-04-12T06:04:27.119Z,95076.14
2018-04-12T06:06:54.674Z,95062.36
2018-04-12T06:09:22.237Z,95055.90
2018-04-12T06:11:49.751Z,95064.77
2018-04-12T06:14:17.319Z,95061.48
2018-04-12T06:16:44.876Z,95064.60
2018-04-12T06:19:12.382Z,95064.54
2018-04-12T06:21:39.901Z,95073.66
2018-04-12T06:24:07.462Z,95065.36
2018-04-12T06:26:34.978Z,95059.47
2018-04-12T06:29:02.491Z,95061.36
2018-04-12T06:31:30.034Z,95056.12
2018-04-12T06:33:57.535Z,95058.59
2018-04-12T06:36:25.046Z,95063.13
2018-04-12T06:38:52.596Z,95069.98
2018-04-12T06:41:20.111Z,95081.80
2018-04-12T06:43:47.671Z,95075.31
2018-04-12T06:46:15.238Z,95058.22
2018-04-12T06:48:42.744Z,95061.23
2018-04-12T06:51:10.353Z,95056.00
2018-04-12T06:56:19.940Z,95069.09
2018-04-12T06:58:47.455Z,95064.70
2018-04-12T07:01:14.994Z,95073.95
2018-04-12T07:03:42.539Z,95064.56
2018-04-12T07:06:10.049Z,95067.91
2018-04-12T07:08:37.551Z,95081.20
2018-04-12T07:11:05.081Z,95067.63
2018-04-12T07:13:32.644Z,95074.67
2018-04-12T07:16:00.224Z,95071.94
2018-04-12T07:18:27.739Z,95078.03
2018-04-12T07:20:55.279Z,95078.84
2018-04-12T07:23:22.858Z,95086.40
2018-04-12T07:25:50.370Z,95091.22
2018-04-12T07:28:17.885Z,95088.82
2018-04-12T07:30:45.450Z,95091.14
2018-04-12T07:33:12.968Z,95084.02
2018-04-12T07:35:40.492Z,95087.26
2018-04-12T07:38:08.004Z,95079.92
2018-04-12T07:40:35.536Z,95079.77
2018-04-12T07:43:03.050Z,95071.59
2018-04-12T07:45:30.644Z,95085.69
2018-04-12T07:47:58.158Z,95078.38
2018-04-12T07:50:25.668Z,95071.05
2018-04-12T07:52:53.268Z,95077.81
2018-04-12T07:55:20.775Z,95074.86
2018-04-12T07:57:48.294Z,95077.64
2018-04-12T08:00:15.858Z,95079.55
2018-04-12T08:02:43.366Z,95073.52
2018-04-12T08:05:10.914Z,95077.72
2018-04-12T08:07:39.050Z,95073.27
2018-04-12T08:10:06.599Z,95074.93
2018-04-12T08:12:34.159Z,95079.16
2018-04-12T08:15:01.675Z,95069.91
2018-04-12T08:17:29.193Z,95061.81
2018-04-12T08:19:56.752Z,95072.40
2018-04-12T08:22:24.323Z,95072.00
2018-04-12T08:24:51.869Z,95063.13
2018-04-12T08:27:19.375Z,95067.67
2018-04-12T08:29:46.928Z,95070.23
2018-04-12T08:32:14.488Z,95065.01
2018-04-12T08:34:42.012Z,95064.70
2018-04-12T08:37:09.532Z,95068.50
2018-04-12T08:39:37.110Z,95059.53
2018-04-12T08:42:04.665Z,95055.50
2018-04-12T08:44:32.184Z,95060.67
2018-04-12T08:46:59.733Z,95062.53
2018-04-12T08:49:27.248Z,95057.33
2018-04-12T08:51:54.790Z,95058.62
2018-04-12T08:54:22.329Z,95055.75
2018-04-12T08:56:49.842Z,95050.24
2018-04-12T08:59:19.935Z,95045.71
2018-04-12T09:01:47.497Z,95052.55
2018-04-12T09:04:15.146Z,95052.53
2018-04-12T09:06:42.661Z,95047.64
2018-04-12T09:09:10.170Z,95046.84
2018-04-12T09:11:37.724Z,95044.27
2018-04-12T09:14:05.231Z,95040.40
2018-04-12T09:16:32.771Z,95045.16
2018-04-12T09:19:00.283Z,95032.59
2018-04-12T09:21:27.791Z,95043.19
2018-04-12T09:23:55.439Z,95034.70
2018-04-12T09:26:22.991Z,95023.39
2018-04-12T09:28:50.500Z,95022.17
2018-04-12T09:31:18.055Z,95025.74
2018-04-12T09:33:45.570Z,95032.92
2018-04-12T09:36:13.124Z,95007.11
2018-04-12T09:38:40.652Z,95018.39
2018-04-12T09:41:08.516Z,95013.35
2018-04-12T09:43:36.028Z,95016.65
2018-04-12T09:46:03.595Z,95004.00
2018-04-12T09:48:31.140Z,95003.52
2018-04-12T09:50:58.648Z,95002.25
2018-04-12T09:53:26.195Z,94997.45
2018-04-12T09:55:53.687Z,94998.38
2018-04-12T09:58:21.277Z,95000.58
2018-04-12T10:00:54.213Z,94998.38
2018-04-12T10:03:21.824Z,94998.84
2018-04-12T10:05:54.934Z,94993.89
2018-04-12T10:08:29.835Z,94989.37
2018-04-12T10:11:06.187Z,94991.77
2018-04-12T10:13:33.699Z,94994.63
2018-04-12T10:16:01.228Z,94979.66
2018-04-12T10:18:28.734Z,94980.06
2018-04-12T10:20:56.254Z,94984.66
2018-04-12T10:23:23.798Z,94971.33
2018-04-12T10:25:51.315Z,94973.30
2018-04-12T10:28:18.821Z,94971.97
2018-04-12T10:30:47.705Z,94968.61
2018-04-12T10:33:15.216Z,94969.50
2018-04-12T10:35:42.759Z,94963.25
2018-04-12T10:38:10.277Z,94967.81
2018-04-12T10:40:37.779Z,94954.81
2018-04-12T10:43:05.285Z,94960.96
2018-04-12T10:45:32.856Z,94955.77
2018-04-12T10:48:00.365Z,94949.17
2018-04-12T10:50:27.886Z,94950.82
2018-04-12T10:52:55.395Z,94950.84
2018-04-12T10:55:22.940Z,94946.72
2018-04-12T10:57:50.486Z,94949.54
2018-04-12T11:00:18.046Z,94947.66
2018-04-12T11:02:45.552Z,94941.51
2018-04-12T11:05:13.058Z,94944.52
2018-04-12T11:07:40.554Z,94945.78
2018-04-12T11:10:08.106Z,94939.29
2018-04-12T11:12:35.612Z,94931.45
2018-04-12T11:15:03.115Z,94929.94
2018-04-12T11:17:30.671Z,94932.17
2018-04-12T11:19:58.171Z,94912.81
2018-04-12T11:22:25.676Z,94918.93
2018-04-12T11:24:53.219Z,94918.45
2018-04-12T11:27:20.771Z,94918.24
2018-04-12T11:29:48.281Z,94926.22
2018-04-12T11:32:15.826Z,94910.70
2018-04-12T11:34:43.340Z,94910.85
2018-04-12T11:37:10.857Z,94918.13
2018-04-12T11:39:38.365Z,94914.41
2018-04-12T11:42:05.871Z,94902.16
2018-04-12T11:44:33.478Z,94903.52
2018-04-12T11:47:00.986Z,94906.67
2018-04-12T11:49:28.553Z,94897.58
2018-04-12T11:51:56.090Z,94894.59
2018-04-12T11:54:23.635Z,94896.73
2018-04-12T11:56:52.100Z,94888.47
2018-04-12T11:59:19.646Z,94883.57
2018-04-12T12:01:47.189Z,94883.70
2018-04-12T12:04:15.508Z,94875.58
2018-04-12T12:06:43.063Z,94888.36
2018-04-12T12:09:11.412Z,94872.07
2018-04-12T12:11:38.944Z,94853.98
2018-04-12T12:14:06.447Z,94854.06
2018-04-12T12:16:33.997Z,94854.02
2018-04-12T12:19:02.794Z,94856.34
2018-04-12T12:21:30.308Z,94851.36
2018-04-12T12:23:57.874Z,94850.64
2018-04-12T12:26:25.379Z,94848.14
2018-04-12T12:28:52.966Z,94839.34
2018-04-12T12:31:20.480Z,94845.31
2018-04-12T12:33:48.005Z,94845.09
2018-04-12T12:36:15.558Z,94839.70
2018-04-12T12:38:43.064Z,94841.08
2018-04-12T12:41:10.631Z,94835.44
2018-04-12T12:43:38.190Z,94825.34
2018-04-12T12:46:05.694Z,94827.56
2018-04-12T12:48:33.201Z,94823.56
2018-04-12T12:51:00.702Z,94818.87
2018-04-12T12:53:28.219Z,94823.88
2018-04-12T12:55:55.794Z,94801.61
2018-04-12T12:58:23.335Z,94832.92
2018-04-12T13:00:51.731Z,94806.05
2018-04-12T13:03:19.268Z,94808.30
2018-04-12T13:05:46.788Z,94818.39
2018-04-12T13:08:14.290Z,94823.13
2018-04-12T13:10:41.794Z,94812.66
2018-04-12T13:13:09.340Z,94811.70
2018-04-12T13:15:36.846Z,94805.45
2018-04-12T13:18:04.369Z,94797.04
2018-04-12T13:20:31.875Z,94795.87
2018-04-12T13:22:59.385Z,94797.30
2018-04-12T13:25:26.972Z,94798.67
2018-04-12T13:27:54.496Z,94792.86
2018-04-12T13:30:22.039Z,94794.59
2018-04-12T13:32:49.540Z,94790.50
2018-04-12T13:35:17.052Z,94789.92
2018-04-12T13:37:44.592Z,94786.89
2018-04-12T13:40:12.099Z,94794.99
2018-04-12T13:42:39.607Z,94785.93
2018-04-12T13:45:07.119Z,94773.36
2018-04-12T13:47:34.668Z,94777.92
2018-04-12T13:50:02.163Z,94782.84
2018-04-12T13:52:29.711Z,94773.51
2018-04-12T13:54:57.290Z,94782.38
2018-04-12T13:57:24.809Z,94771.63
2018-04-12T13:59:52.316Z,94768.28
2018-04-12T14:02:19.855Z,94751.45
2018-04-12T14:04:47.384Z,94778.96
2018-04-12T14:07:14.899Z,94773.17
2018-04-12T14:09:42.401Z,94772.15
2018-04-12T14:12:09.937Z,94767.76
2018-04-12T14:14:37.461Z,94776.25
2018-04-12T14:17:05.332Z,94763.73
2018-04-12T14:19:32.829Z,94767.27
2018-04-12T14:22:00.344Z,94763.33
2018-04-12T14:24:27.859Z,94769.11
2018-04-12T14:26:55.613Z,94767.77
2018-04-12T14:29:23.160Z,94769.89
2018-04-12T14:31:50.678Z,94763.16
2018-04-12T14:34:18.232Z,94770.35
2018-04-12T14:36:45.784Z,94763.95
2018-04-12T14:39:13.288Z,94767.31
2018-04-12T14:41:40.848Z,94766.27
2018-04-12T14:44:08.371Z,94755.13
2018-04-12T14:46:35.920Z,94754.09
2018-04-12T14:49:03.419Z,94750.15
2018-04-12T14:51:30.929Z,94757.41
2018-04-12T14:53:58.488Z,94751.39
2018-04-12T14:56:26.103Z,94749.22
2018-04-12T14:58:53.614Z,94747.44
2018-04-12T15:01:21.163Z,94754.45
2018-04-12T15:03:48.705Z,94766.34
2018-04-12T15:06:16.207Z,94770.17
2018-04-12T15:08:43.743Z,94760.42
2018-04-12T15:11:11.228Z,94731.25
2018-04-12T15:13:38.777Z,94762.26
2018-04-12T15:16:06.316Z,94763.30
2018-04-12T15:18:33.815Z,94772.33
2018-04-12T15:21:01.360Z,94772.59
2018-04-12T15:23:28.859Z,94767.39
2018-04-12T15:25:56.416Z,94764.95
2018-04-12T15:28:23.931Z,94761.14
2018-04-12T15:30:51.480Z,94775.80
2018-04-12T15:33:19.017Z,94773.42
2018-04-12T15:35:46.521Z,94780.98
2018-04-12T15:38:14.076Z,94777.23
2018-04-12T15:40:41.589Z,94772.91
2018-04-12T15:43:09.098Z,94768.37
2018-04-12T15:45:36.658Z,94770.55
2018-04-12T15:48:04.172Z,94777.76
2018-04-12T15:50:31.715Z,94776.81
2018-04-12T15:52:59.223Z,94779.03
2018-04-12T15:55:26.742Z,94786.12
2018-04-12T15:57:54.289Z,94782.77
2018-04-12T16:00:21.837Z,94783.66
2018-04-12T16:02:49.385Z,94781.63
2018-04-12T16:05:16.891Z,94790.63
2018-04-12T16:07:44.448Z,94783.91
2018-04-12T16:10:11.960Z,94790.87
2018-04-12T16:12:39.469Z,94792.17
2018-04-12T16:15:06.985Z,94786.72
2018-04-12T16:17:34.537Z,94799.08
2018-04-12T16:20:02.045Z,94794.63
2018-04-12T16:22:29.590Z,94797.84
2018-04-12T16:24:57.088Z,94803.81
2018-04-12T16:27:24.643Z,94803.11
2018-04-12T16:29:52.444Z,94806.84
2018-04-12T16:32:19.983Z,94809.73
2018-04-12T16:34:47.524Z,94798.31
2018-04-12T16:37:17.695Z,94815.76
2018-04-12T16:39:45.201Z,94811.62
2018-04-12T16:42:12.714Z,94820.25
2018-04-12T16:44:40.210Z,94819.24
2018-04-12T16:47:07.731Z,94822.05
2018-04-12T16:49:35.288Z,94820.95
2018-04-12T16:52:02.826Z,94810.30
2018-04-12T16:54:30.339Z,94830.42
2018-04-12T16:56:57.908Z,94826.88
2018-04-12T16:59:25.465Z,94831.95
2018-04-12T17:01:52.971Z,94830.84
2018-04-12T17:04:20.483Z,94835.22
2018-04-12T17:06:47.990Z,94840.30
2018-04-12T17:09:15.531Z,94844.13
2018-04-12T17:11:43.046Z,94841.84
2018-04-12T17:14:10.570Z,94846.95
2018-04-12T17:16:39.035Z,94856.63
2018-04-12T17:19:06.579Z,94866.38
2018-04-12T17:21:34.091Z,94872.02
2018-04-12T17:24:01.612Z,94871.35
2018-04-12T17:26:29.122Z,94876.63
2018-04-12T17:28:56.668Z,94877.72
2018-04-12T17:31:24.180Z,94879.73
2018-04-12T17:33:51.692Z,94883.66
2018-04-12T17:36:19.234Z,94891.08
2018-04-12T17:38:46.738Z,94896.29
2018-04-12T17:41:14.251Z,94907.66
2018-04-12T17:43:41.763Z,94904.80
2018-04-12T17:46:09.268Z,94914.32
2018-04-12T17:48:36.817Z,94912.22
2018-04-12T17:51:04.323Z,94899.66
2018-04-12T17:53:31.845Z,94918.86
2018-04-12T17:55:59.364Z,94922.80
2018-04-12T17:58:27.506Z,94930.84
2018-04-12T18:00:56.252Z,94930.47
2018-04-12T18:03:23.765Z,94924.77
2018-04-12T18:05:51.321Z,94939.39
2018-04-12T18:08:18.858Z,94938.63
2018-04-12T18:10:46.371Z,94946.14
2018-04-12T18:13:13.892Z,94953.53
2018-04-12T18:15:41.436Z,94955.84
2018-04-12T18:18:08.940Z,94949.86
2018-04-12T18:20:36.505Z,94947.16
2018-04-12T18:23:04.007Z,94958.70
2018-04-12T18:25:31.517Z,94961.38
2018-04-12T18:27:59.038Z,94962.38
2018-04-12T18:30:26.543Z,94964.09
2018-04-12T18:32:54.046Z,94963.55
2018-04-12T18:35:21.565Z,94966.46
2018-04-12T18:37:49.089Z,94978.77
2018-04-12T18:40:16.634Z,94978.20
2018-04-12T18:42:44.179Z,94963.41
2018-04-12T18:45:11.691Z,94979.33
2018-04-12T18:47:39.815Z,95000.34
2018-04-12T18:50:07.336Z,94977.49
2018-04-12T18:52:34.892Z,94988.27
2018-04-12T18:55:02.457Z,94992.39
2018-04-12T18:57:29.972Z,94992.98
2018-04-12T18:59:57.483Z,94997.56
2018-04-12T19:02:25.080Z,94989.35
2018-04-12T19:04:52.630Z,95000.70
2018-04-12T19:07:20.190Z,94947.86
2018-04-12T19:09:47.689Z,95007.02
2018-04-12T19:12:15.200Z,95000.75
2018-04-12T19:14:43.516Z,95001.91
2018-04-12T19:17:11.032Z,94997.20
2018-04-12T19:19:38.572Z,94999.64
2018-04-12T19:22:06.100Z,95007.81
2018-04-12T19:24:33.647Z,95000.80
2018-04-12T19:27:01.190Z,95006.87
2018-04-12T19:29:28.704Z,95013.94
2018-04-12T19:31:56.264Z,95010.81
2018-04-12T19:34:23.766Z,95007.91
2018-04-12T19:36:51.303Z,95007.70
2018-04-12T19:39:18.865Z,95005.56
2018-04-12T19:41:46.407Z,95009.30
2018-04-12T19:44:14.828Z,95002.48
2018-04-12T19:46:42.396Z,95012.05
2018-04-12T19:49:09.900Z,95008.31
2018-04-12T19:51:37.443Z,95013.61
2018-04-12T19:54:06.216Z,95021.80
2018-04-12T19:56:33.727Z,95014.02
2018-04-12T19:59:01.276Z,95021.03
2018-04-12T20:01:28.840Z,95009.31
2018-04-12T20:03:56.372Z,95017.33
2018-04-12T20:06:23.915Z,95014.00
2018-04-12T20:08:51.465Z,95015.96
2018-04-12T20:11:19.747Z,95013.23
2018-04-12T20:13:47.362Z,95021.23
2018-04-12T20:16:14.844Z,95020.45
2018-04-12T20:18:42.636Z,95023.97
2018-04-12T20:21:10.140Z,95028.25
2018-04-12T20:23:37.703Z,95029.06
2018-04-12T20:26:05.207Z,95022.22
2018-04-12T20:28:32.756Z,95031.00
2018-04-12T20:31:00.295Z,95021.83
2018-04-12T20:33:27.828Z,95033.54
2018-04-12T20:35:55.361Z,95028.24
2018-04-12T20:38:23.764Z,95023.32
2018-04-12T20:40:51.269Z,95031.31
2018-04-12T20:43:18.784Z,95030.52
2018-04-12T20:45:46.300Z,95031.08
2018-04-12T20:48:15.345Z,95027.95
2018-04-12T20:50:42.851Z,95020.56
2018-04-12T20:53:10.361Z,95029.72
2018-04-12T20:55:37.890Z,95025.45
2018-04-12T20:58:05.396Z,95025.62
2018-04-12T21:00:34.159Z,95020.11
2018-04-12T21:03:01.704Z,95034.14
2018-04-12T21:05:29.219Z,95032.80
2018-04-12T21:07:56.739Z,95026.13
2018-04-12T21:10:24.280Z,95024.56
2018-04-12T21:12:51.833Z,95031.96
2018-04-12T21:15:19.338Z,95035.66
2018-04-12T21:17:46.900Z,95042.84
2018-04-12T21:20:14.411Z,95028.02
2018-04-12T21:22:41.922Z,95034.45
2018-04-12T21:25:09.457Z,95027.45
2018-04-12T21:27:36.954Z,95020.41
2018-04-12T21:30:07.457Z,95028.68
2018-04-12T21:32:34.988Z,95029.08
2018-04-12T21:35:02.522Z,95029.83
2018-04-12T21:37:30.031Z,95030.78
2018-04-12T21:39:57.833Z,95025.11
2018-04-12T21:42:25.347Z,95042.30
2018-04-12T21:44:52.893Z,95038.26
2018-04-12T21:47:20.429Z,95046.28
2018-04-12T21:49:47.935Z,95054.08
2018-04-12T21:52:15.448Z,95048.04
2018-04-12T21:54:42.952Z,95038.06
2018-04-12T21:57:10.465Z,95046.07
2018-04-12T21:59:38.015Z,95041.77
2018-04-12T22:02:07.031Z,95050.55
2018-04-12T22:04:34.560Z,95050.33
2018-04-12T22:07:02.077Z,95050.28
2018-04-12T22:09:29.630Z,95042.12
2018-04-12T22:11:57.134Z,95045.03
2018-04-12T22:14:24.645Z,95052.77
2018-04-12T22:16:52.163Z,95054.52
2018-04-12T22:19:19.663Z,95048.70
2018-04-12T22:21:47.160Z,95052.77
2018-04-12T22:24:14.673Z,95054.16
2018-04-12T22:26:42.182Z,95050.28
2018-04-12T22:29:09.687Z,95046.77
2018-04-12T22:31:37.200Z,95042.84
2018-04-12T22:34:04.712Z,95042.30
2018-04-12T22:36:32.263Z,95058.33
2018-04-12T22:38:59.776Z,95053.87
2018-04-12T22:41:27.333Z,95050.53
2018-04-12T22:43:54.849Z,95054.47
2018-04-12T22:46:22.391Z,95050.98
2018-04-12T22:48:49.895Z,95053.13
2018-04-12T22:51:17.448Z,95049.40
2018-04-12T22:53:44.956Z,95050.97
2018-04-12T22:56:12.495Z,95050.77
2018-04-12T22:58:40.039Z,95049.78
2018-04-12T23:01:07.595Z,95051.91
2018-04-12T23:03:35.105Z,95046.66
2018-04-12T23:06:02.683Z,95051.92
2018-04-12T23:08:30.196Z,95052.09
2018-04-12T23:10:57.713Z,95050.35
2018-04-12T23:13:25.219Z,95048.16
2018-04-12T23:15:52.734Z,95049.34
2018-04-12T23:18:20.285Z,95055.61
2018-04-12T23:20:47.839Z,95051.14
2018-04-12T23:23:15.382Z,95044.92
2018-04-12T23:25:42.889Z,95048.98
2018-04-12T23:28:10.396Z,95036.47
2018-04-12T23:30:37.961Z,95042.72
2018-04-12T23:33:05.475Z,95045.00
2018-04-12T23:35:32.979Z,95043.61
2018-04-12T23:38:00.525Z,95046.70
2018-04-12T23:40:28.027Z,95046.48
2018-04-12T23:42:55.564Z,95050.00
2018-04-12T23:45:23.160Z,95045.34
2018-04-12T23:47:50.660Z,95040.64
2018-04-12T23:50:18.167Z,95038.45
2018-04-12T23:52:45.679Z,95039.03
2018-04-12T23:55:13.215Z,95041.54
2018-04-12T23:57:40.768Z,95043.02
